Time;durP1;ratioP1;P1;durP2;ratioP2;P2;SDS_P1;SDS_P2;PMS_P1;PMS_P2;Temp;Humidity;BMP_temperature;BMP_pressure;BME280_temperature;BME280_humidity;BME280_pressure;Samples;Min_cycle;Max_cycle;Signal;HPM_P1;HPM_P2
2023/09/05 00:01:10;;;;;;;9.70;6.18;;;;;;;16.86;100.00;101894.81;5077966;28;20032;-79
2023/09/05 00:03:35;;;;;;;10.32;5.45;;;;;;;16.83;100.00;101885.31;5076672;28;20028;-79
2023/09/05 00:06:04;;;;;;;6.93;5.10;;;;;;;16.81;100.00;101900.84;5069939;28;20506;-79
2023/09/05 00:08:30;;;;;;;10.77;5.47;;;;;;;16.69;100.00;101902.53;5085663;28;20032;-79
2023/09/05 00:10:59;;;;;;;9.80;5.55;;;;;;;16.72;100.00;101903.97;5069936;28;20040;-79
2023/09/05 00:13:26;;;;;;;8.90;5.13;;;;;;;16.70;100.00;101903.34;5069802;28;20553;-80
2023/09/05 00:15:52;;;;;;;8.32;5.22;;;;;;;16.67;100.00;101910.00;5089098;28;20058;-79
2023/09/05 00:18:17;;;;;;;8.68;4.43;;;;;;;16.67;100.00;101915.38;5087991;28;20055;-79
2023/09/05 00:20:44;;;;;;;11.30;5.65;;;;;;;16.69;100.00;101913.31;5087823;28;20128;-79
2023/09/05 00:23:09;;;;;;;12.57;5.90;;;;;;;16.59;100.00;101921.00;5069691;28;20029;-79
2023/09/05 00:25:34;;;;;;;8.85;4.75;;;;;;;16.45;100.00;101906.69;5086213;28;20035;-79
2023/09/05 00:28:03;;;;;;;9.90;5.38;;;;;;;16.38;100.00;101924.75;5088838;28;20502;-79
2023/09/05 00:30:28;;;;;;;11.57;5.53;;;;;;;16.17;100.00;101921.25;5078995;28;20055;-79
2023/09/05 00:32:54;;;;;;;11.43;6.47;;;;;;;16.10;100.00;101922.28;5080560;28;20040;-79
2023/09/05 00:35:19;;;;;;;8.90;5.55;;;;;;;16.03;100.00;101922.25;5089065;28;20399;-79
2023/09/05 00:37:46;;;;;;;8.15;4.80;;;;;;;16.05;100.00;101922.06;5088843;28;20387;-78
2023/09/05 00:40:11;;;;;;;10.02;6.15;;;;;;;16.04;100.00;101932.00;5088960;28;20107;-79
2023/09/05 00:42:36;;;;;;;12.95;5.38;;;;;;;16.02;100.00;101926.00;5074731;28;20148;-79
2023/09/05 00:45:03;;;;;;;10.57;5.72;;;;;;;16.09;100.00;101931.41;5069529;28;20067;-80
2023/09/05 00:47:30;;;;;;;11.63;5.75;;;;;;;16.06;100.00;101938.03;5069457;28;20029;-79
2023/09/05 00:49:57;;;;;;;12.45;5.50;;;;;;;15.99;100.00;101932.63;5089117;28;20031;-79
2023/09/05 00:52:25;;;;;;;9.80;6.03;;;;;;;15.87;100.00;101928.88;5081517;28;20051;-79
2023/09/05 00:54:51;;;;;;;11.38;5.55;;;;;;;15.85;100.00;101924.72;5087240;28;20028;-79
2023/09/05 00:57:19;;;;;;;9.75;5.05;;;;;;;15.87;100.00;101931.56;5069296;28;20032;-79
2023/09/05 00:59:44;;;;;;;8.98;5.35;;;;;;;15.91;100.00;101922.06;5069234;28;20032;-79
2023/09/05 01:02:10;;;;;;;10.93;4.70;;;;;;;15.96;100.00;101926.84;5068050;28;20500;-79
2023/09/05 01:04:36;;;;;;;6.43;4.32;;;;;;;16.03;100.00;101927.63;5076788;28;20039;-79
2023/09/05 01:07:09;;;;;;;11.13;4.85;;;;;;;16.00;100.00;101928.06;5080015;28;20133;-79
2023/09/05 01:09:49;;;;;;;8.68;4.35;;;;;;;15.90;100.00;101930.31;5088311;28;20036;-80
2023/09/05 01:12:16;;;;;;;9.40;5.18;;;;;;;15.70;100.00;101924.94;5088451;28;20031;-80
2023/09/05 01:14:41;;;;;;;9.85;4.60;;;;;;;15.69;100.00;101925.94;5069799;28;20550;-79
2023/09/05 01:17:06;;;;;;;8.85;4.53;;;;;;;15.67;100.00;101928.00;5072560;28;20116;-79
2023/09/05 01:19:37;;;;;;;12.45;4.72;;;;;;;15.78;100.00;101925.56;5088486;28;20039;-79
2023/09/05 01:22:14;;;;;;;6.93;4.50;;;;;;;15.90;100.00;101927.63;5076573;28;20085;-79
2023/09/05 01:24:40;;;;;;;10.80;5.22;;;;;;;15.94;100.00;101918.13;5077221;28;20032;-79
2023/09/05 01:27:07;;;;;;;10.90;4.45;;;;;;;15.94;100.00;101926.19;5073186;28;20043;-79
2023/09/05 01:29:38;;;;;;;14.80;5.22;;;;;;;15.95;100.00;101922.47;5072871;28;20107;-79
2023/09/05 01:32:07;;;;;;;8.75;4.47;;;;;;;15.97;100.00;101923.09;5081677;28;20036;-79
2023/09/05 01:34:33;;;;;;;9.07;4.30;;;;;;;16.03;100.00;101924.94;5092261;28;20112;-80
2023/09/05 01:36:58;;;;;;;9.90;4.95;;;;;;;16.04;100.00;101921.25;5073065;28;20117;-80
2023/09/05 01:39:24;;;;;;;7.57;3.80;;;;;;;16.08;100.00;101917.09;5092144;28;20467;-80
2023/09/05 01:41:50;;;;;;;7.22;4.03;;;;;;;16.11;100.00;101911.31;5092169;28;20031;-80
2023/09/05 01:44:15;;;;;;;7.43;4.60;;;;;;;16.13;100.00;101911.09;5088599;28;20043;-80
2023/09/05 01:46:41;;;;;;;9.38;4.45;;;;;;;16.16;100.00;101916.88;5082809;28;20028;-80
2023/09/05 01:49:06;;;;;;;9.55;4.60;;;;;;;16.17;100.00;101918.56;5092208;28;20077;-80
2023/09/05 01:51:31;;;;;;;10.63;5.45;;;;;;;16.18;100.00;101920.19;5091864;28;20031;-80
2023/09/05 01:53:57;;;;;;;7.93;4.75;;;;;;;16.15;100.00;101917.91;5092311;28;20028;-80
2023/09/05 01:56:22;;;;;;;8.85;4.78;;;;;;;16.16;100.00;101929.50;5090708;28;20115;-79
2023/09/05 01:58:47;;;;;;;6.93;4.65;;;;;;;16.18;100.00;101928.28;5087536;28;20369;-80
2023/09/05 02:01:13;;;;;;;8.18;4.40;;;;;;;16.17;100.00;101925.81;5075503;28;20071;-80
2023/09/05 02:03:38;;;;;;;7.82;4.22;;;;;;;16.14;100.00;101928.91;5084318;28;20029;-80
2023/09/05 02:06:03;;;;;;;9.30;5.38;;;;;;;16.09;100.00;101920.63;5079408;28;20032;-80
2023/09/05 02:08:29;;;;;;;8.63;4.78;;;;;;;16.04;100.00;101925.81;5091647;28;20605;-79
2023/09/05 02:10:54;;;;;;;7.10;4.72;;;;;;;16.02;100.00;101927.88;5090389;28;20403;-80
2023/09/05 02:13:20;;;;;;;16.95;6.13;;;;;;;15.95;100.00;101917.09;5068046;28;20391;-80
2023/09/05 02:15:45;;;;;;;11.40;5.05;;;;;;;15.99;100.00;101929.09;5072206;28;20028;-80
2023/09/05 02:18:11;;;;;;;7.80;4.72;;;;;;;16.00;100.00;101926.19;5070843;28;20479;-80
2023/09/05 02:20:40;;;;;;;10.82;5.18;;;;;;;15.93;100.00;101925.38;5072011;28;20032;-79
2023/09/05 02:23:06;;;;;;;8.43;5.05;;;;;;;15.95;100.00;101925.97;5084047;28;20111;-80
2023/09/05 02:25:31;;;;;;;8.18;4.68;;;;;;;15.97;100.00;101926.59;5091558;28;20180;-79
2023/09/05 02:27:56;;;;;;;7.60;4.45;;;;;;;15.98;100.00;101924.75;5091391;28;20032;-79
2023/09/05 02:30:22;;;;;;;8.57;5.18;;;;;;;15.90;100.00;101915.03;5078527;28;20404;-79
2023/09/05 02:32:54;;;;;;;8.80;5.13;;;;;;;15.97;100.00;101923.09;5091028;28;20042;-79
2023/09/05 02:35:25;;;;;;;9.32;4.88;;;;;;;16.02;100.00;101930.56;5089924;28;20236;-80
2023/09/05 02:37:52;;;;;;;15.15;5.90;;;;;;;15.98;100.00;101932.81;5075580;28;20036;-80
2023/09/05 02:40:18;;;;;;;7.82;4.53;;;;;;;15.98;100.00;101928.28;5090786;28;20081;-79
2023/09/05 02:42:43;;;;;;;11.38;5.57;;;;;;;15.90;100.00;101920.41;5070588;28;20036;-80
2023/09/05 02:45:09;;;;;;;11.35;5.35;;;;;;;15.97;100.00;101923.91;5090750;28;20020;-79
2023/09/05 02:47:35;;;;;;;10.07;4.70;;;;;;;16.00;100.00;101928.06;5090838;28;20036;-80
2023/09/05 02:50:00;;;;;;;10.02;6.00;;;;;;;15.99;100.00;101919.16;5071712;28;20052;-79
2023/09/05 02:52:26;;;;;;;9.13;5.95;;;;;;;15.94;100.00;101907.38;5071450;28;20035;-80
2023/09/05 02:54:51;;;;;;;12.32;5.88;;;;;;;15.99;100.00;101911.09;5086230;28;20507;-79
2023/09/05 02:57:17;;;;;;;8.77;4.82;;;;;;;15.92;100.00;101904.06;5090672;28;20032;-79
2023/09/05 02:59:43;;;;;;;9.80;4.45;;;;;;;15.97;100.00;101913.16;5090888;28;20066;-80
2023/09/05 03:02:08;;;;;;;9.65;5.28;;;;;;;15.96;100.00;101906.13;5090599;28;20020;-80
2023/09/05 03:04:33;;;;;;;9.68;5.75;;;;;;;15.97;100.00;101915.84;5090760;28;20479;-80
2023/09/05 03:07:01;;;;;;;9.60;5.63;;;;;;;15.92;100.00;101907.56;5086241;28;20054;-80
2023/09/05 03:09:26;;;;;;;6.78;4.40;;;;;;;15.90;100.00;101904.28;5090800;28;20431;-80
2023/09/05 03:11:52;;;;;;;7.25;4.53;;;;;;;15.90;100.00;101900.72;5073329;28;20459;-80
2023/09/05 03:14:17;;;;;;;7.78;4.05;;;;;;;15.88;100.00;101900.97;5071131;28;20033;-80
2023/09/05 03:16:43;;;;;;;12.15;5.63;;;;;;;15.85;100.00;101893.31;5070993;28;20028;-79
2023/09/05 03:19:11;;;;;;;10.40;4.43;;;;;;;15.93;100.00;101900.34;5069551;28;20117;-80
2023/09/05 03:21:37;;;;;;;7.20;4.40;;;;;;;15.91;100.00;101894.34;5089140;28;20061;-79
2023/09/05 03:24:03;;;;;;;8.52;4.95;;;;;;;15.92;100.00;101898.66;5087481;28;20162;-80
2023/09/05 03:26:28;;;;;;;9.18;4.55;;;;;;;15.91;100.00;101895.16;5085753;28;20114;-79
2023/09/05 03:28:54;;;;;;;16.48;5.60;;;;;;;15.93;100.00;101901.16;5070809;28;20119;-79
2023/09/05 03:31:19;;;;;;;10.98;5.28;;;;;;;15.87;100.00;101895.75;5070613;28;20056;-79
2023/09/05 03:33:45;;;;;;;8.93;4.40;;;;;;;15.85;100.00;101890.59;5081004;28;20024;-79
2023/09/05 03:36:11;;;;;;;8.18;4.70;;;;;;;15.89;100.00;101891.84;5089849;28;20047;-79
2023/09/05 03:38:36;;;;;;;8.32;4.65;;;;;;;15.86;100.00;101894.94;5090306;28;20157;-79
2023/09/05 03:41:02;;;;;;;8.80;5.03;;;;;;;15.84;100.00;101885.41;5089949;28;20097;-79
2023/09/05 03:43:27;;;;;;;9.32;4.45;;;;;;;15.83;100.00;101876.53;5090163;28;20076;-79
2023/09/05 03:45:53;;;;;;;11.25;4.82;;;;;;;15.83;100.00;101884.59;5088452;28;20035;-80
2023/09/05 03:48:18;;;;;;;9.88;5.40;;;;;;;15.81;100.00;101881.28;5084491;28;20129;-79
2023/09/05 03:50:44;;;;;;;8.50;4.57;;;;;;;15.81;100.00;101875.09;5052400;28;20039;-79
2023/09/05 03:53:09;;;;;;;9.02;5.30;;;;;;;15.73;100.00;101873.41;5084010;28;20036;-79
2023/09/05 03:55:34;;;;;;;10.88;5.15;;;;;;;15.68;100.00;101887.44;5089631;28;20027;-80
2023/09/05 03:58:04;;;;;;;6.43;4.03;;;;;;;15.70;100.00;101893.47;5073081;28;20063;-80
2023/09/05 04:00:32;;;;;;;10.43;5.80;;;;;;;15.66;100.00;101886.81;5083906;28;20027;-79
2023/09/05 04:02:58;;;;;;;9.70;4.93;;;;;;;15.62;100.00;101879.38;5089417;28;20528;-79
2023/09/05 04:05:24;;;;;;;10.60;5.22;;;;;;;15.54;100.00;101881.22;5085846;28;20036;-79
2023/09/05 04:07:49;;;;;;;12.23;4.85;;;;;;;15.53;100.00;101887.63;5085209;28;20099;-79
2023/09/05 04:10:15;;;;;;;10.77;6.07;;;;;;;15.52;100.00;101882.47;5085471;28;20038;-79
2023/09/05 04:12:40;;;;;;;8.52;4.97;;;;;;;15.42;100.00;101871.28;5089334;28;20058;-79
2023/09/05 04:15:06;;;;;;;8.90;4.40;;;;;;;15.46;100.00;101869.84;5089332;28;20058;-79
2023/09/05 04:17:31;;;;;;;10.90;5.22;;;;;;;15.48;100.00;101873.97;5083495;28;20028;-79
2023/09/05 04:19:56;;;;;;;11.00;5.32;;;;;;;15.45;100.00;101873.53;5089246;28;20028;-78
2023/09/05 04:22:24;;;;;;;8.07;4.78;;;;;;;15.38;100.00;101861.94;5086900;28;20668;-79
2023/09/05 04:24:55;;;;;;;12.27;5.28;;;;;;;15.41;100.00;101875.81;5084425;28;20047;-79
2023/09/05 04:27:21;;;;;;;18.42;6.07;;;;;;;15.43;100.00;101872.91;5073698;28;20029;-78
2023/09/05 04:29:51;;;;;;;8.32;5.20;;;;;;;15.40;100.00;101878.69;5069420;28;20037;-78
2023/09/05 04:32:30;;;;;;;8.50;4.53;;;;;;;15.40;100.00;101873.31;5089256;28;20028;-79
2023/09/05 04:35:00;;;;;;;9.63;5.15;;;;;;;15.43;100.00;101875.59;5089141;28;20038;-79
2023/09/05 04:37:27;;;;;;;8.20;4.70;;;;;;;15.41;100.00;101872.31;5087545;28;20115;-79
2023/09/05 04:39:54;;;;;;;9.15;4.55;;;;;;;15.43;100.00;101876.47;5089179;28;20487;-80
2023/09/05 04:42:20;;;;;;;8.77;4.90;;;;;;;15.39;100.00;101871.69;5088744;28;20039;-79
2023/09/05 04:44:45;;;;;;;8.73;4.68;;;;;;;15.34;100.00;101869.59;5072811;28;20044;-79
2023/09/05 04:47:24;;;;;;;7.03;4.75;;;;;;;15.39;100.00;101877.06;5069413;28;20016;-79
2023/09/05 04:49:51;;;;;;;8.60;4.95;;;;;;;15.32;100.00;101877.84;5079707;28;20383;-79
2023/09/05 04:52:18;;;;;;;8.70;4.72;;;;;;;15.35;100.00;101873.94;5068184;28;20090;-79
2023/09/05 04:54:45;;;;;;;9.95;5.35;;;;;;;15.32;100.00;101877.84;5067797;28;20476;-79
2023/09/05 04:57:10;;;;;;;9.45;4.97;;;;;;;15.34;100.00;101867.72;5085651;28;20028;-80
2023/09/05 04:59:39;;;;;;;11.50;5.72;;;;;;;15.36;100.00;101864.84;5049635;28;20349;-80
2023/09/05 05:02:05;;;;;;;8.65;4.63;;;;;;;15.42;100.00;101857.81;5087590;28;20036;-79
2023/09/05 05:04:30;;;;;;;9.60;5.22;;;;;;;15.51;100.00;101864.66;5086559;28;20046;-79
2023/09/05 05:06:56;;;;;;;10.10;4.47;;;;;;;15.56;100.00;101865.72;5088037;28;20120;-79
2023/09/05 05:09:21;;;;;;;6.97;4.10;;;;;;;15.61;100.00;101864.25;5088248;28;20479;-79
2023/09/05 05:11:47;;;;;;;9.30;5.35;;;;;;;15.68;100.00;101867.78;5075606;28;20115;-79
2023/09/05 05:14:12;;;;;;;12.52;5.20;;;;;;;15.60;100.00;101865.31;5068782;28;20380;-79
2023/09/05 05:16:37;;;;;;;8.18;4.47;;;;;;;15.73;100.00;101866.16;5079996;28;20033;-79
2023/09/05 05:19:03;;;;;;;7.78;4.30;;;;;;;15.71;100.00;101865.53;5067971;28;20071;-79
2023/09/05 05:21:28;;;;;;;8.85;5.20;;;;;;;15.74;100.00;101869.69;5068452;28;20029;-79
2023/09/05 05:23:55;;;;;;;10.05;5.07;;;;;;;15.76;100.00;101873.81;5072891;28;20086;-80
2023/09/05 05:26:20;;;;;;;6.80;4.28;;;;;;;15.72;100.00;101869.91;5075727;28;20028;-80
2023/09/05 05:28:45;;;;;;;7.40;4.35;;;;;;;15.77;100.00;101875.50;5083814;28;20368;-80
2023/09/05 05:31:14;;;;;;;7.60;4.18;;;;;;;15.75;100.00;101866.81;5088292;28;20407;-79
2023/09/05 05:33:40;;;;;;;8.23;4.57;;;;;;;15.78;100.00;101876.31;5088664;28;20060;-80
2023/09/05 05:36:06;;;;;;;8.70;4.75;;;;;;;15.75;100.00;101865.97;5088262;28;20096;-79
2023/09/05 05:38:31;;;;;;;9.23;5.50;;;;;;;15.72;100.00;101872.59;5088355;28;20055;-79
2023/09/05 05:40:58;;;;;;;7.38;4.82;;;;;;;15.68;100.00;101876.69;5087233;28;20028;-79
2023/09/05 05:43:26;;;;;;;9.88;5.68;;;;;;;15.71;100.00;101883.53;5088311;28;20085;-79
2023/09/05 05:45:52;;;;;;;10.20;4.65;;;;;;;15.63;100.00;101876.47;5074151;28;20023;-80
2023/09/05 05:48:17;;;;;;;8.13;5.07;;;;;;;15.67;100.00;101875.03;5086909;28;20075;-79
2023/09/05 05:50:43;;;;;;;8.50;4.20;;;;;;;15.72;100.00;101877.97;5087991;28;20056;-79
2023/09/05 05:53:08;;;;;;;10.70;6.20;;;;;;;15.75;100.00;101872.19;5074994;28;20044;-79
2023/09/05 05:55:34;;;;;;;11.57;5.97;;;;;;;15.75;100.00;101869.50;5088170;28;20039;-80
2023/09/05 05:58:00;;;;;;;9.82;4.95;;;;;;;15.80;100.00;101873.41;5088090;28;20028;-80
2023/09/05 06:00:29;;;;;;;11.68;5.10;;;;;;;15.83;100.00;101879.22;5082055;28;20036;-80
2023/09/05 06:02:55;;;;;;;12.13;5.32;;;;;;;15.83;100.00;101867.63;5087008;28;20028;-79
2023/09/05 06:05:21;;;;;;;8.52;4.95;;;;;;;15.90;100.00;101872.00;5088231;28;20107;-79
2023/09/05 06:07:47;;;;;;;10.13;5.78;;;;;;;16.02;100.00;101871.34;5087819;28;20020;-79
2023/09/05 06:10:12;;;;;;;6.65;4.65;;;;;;;16.08;100.00;101874.03;5070318;28;20486;-79
2023/09/05 06:12:38;;;;;;;7.65;4.53;;;;;;;16.14;100.00;101873.22;5070882;28;20067;-78
2023/09/05 06:15:03;;;;;;;10.80;5.50;;;;;;;16.24;100.00;101880.03;5070788;28;20480;-79
2023/09/05 06:17:29;;;;;;;10.40;5.00;;;;;;;16.28;100.00;101875.88;5072021;28;20068;-80
2023/09/05 06:19:54;;;;;;;9.75;4.90;;;;;;;16.35;100.00;101871.34;5072034;28;20074;-80
2023/09/05 06:22:20;;;;;;;10.07;4.85;;;;;;;16.48;100.00;101876.69;5070756;28;20494;-80
2023/09/05 06:24:45;;;;;;;7.70;3.45;;;;;;;16.55;100.00;101871.25;5072382;28;20032;-77
2023/09/05 06:27:11;;;;;;;9.25;4.32;;;;;;;16.64;100.00;101870.84;5082511;28;20064;-78
2023/09/05 06:29:36;;;;;;;6.93;3.33;;;;;;;16.71;100.00;101869.97;5082686;28;20031;-78
2023/09/05 06:32:01;;;;;;;7.93;4.10;;;;;;;16.78;100.00;101868.13;5089813;28;20560;-78
2023/09/05 06:34:27;;;;;;;6.53;3.92;;;;;;;16.82;100.00;101863.94;5071763;28;20049;-79
2023/09/05 06:36:53;;;;;;;6.53;3.88;;;;;;;16.93;100.00;101871.38;5070367;28;20025;-79
2023/09/05 06:39:18;;;;;;;6.40;3.90;;;;;;;17.01;100.00;101876.53;5071741;28;20383;-76
2023/09/05 06:41:43;;;;;;;9.13;4.07;;;;;;;17.06;100.00;101871.31;5088562;28;20115;-80
2023/09/05 06:44:09;;;;;;;7.03;3.63;;;;;;;17.09;100.00;101873.59;5086089;28;20154;-78
2023/09/05 06:46:35;;;;;;;6.88;3.55;;;;;;;17.18;100.00;101884.94;5091138;28;20133;-72
2023/09/05 06:49:02;;;;;;;9.55;4.07;;;;;;;17.22;100.00;101878.09;5091055;28;20036;-72
2023/09/05 06:51:28;;;;;;;13.88;4.72;;;;;;;17.34;100.00;101875.50;5091079;28;20024;-72
2023/09/05 06:53:54;;;;;;;6.35;4.10;;;;;;;17.41;100.00;101867.41;5090794;28;20035;-72
2023/09/05 06:56:20;;;;;;;6.22;3.97;;;;;;;17.47;100.00;101867.34;5078125;28;20032;-73
2023/09/05 06:58:47;;;;;;;6.70;3.58;;;;;;;17.55;100.00;101868.13;5084813;28;20025;-74
2023/09/05 07:01:13;;;;;;;6.03;4.35;;;;;;;17.59;100.00;101864.78;5090301;28;20039;-74
2023/09/05 07:03:38;;;;;;;6.03;3.83;;;;;;;17.61;100.00;101859.19;5090621;28;20314;-73
2023/09/05 07:06:04;;;;;;;7.45;3.92;;;;;;;17.75;100.00;101860.72;5071288;28;20431;-74
2023/09/05 07:08:30;;;;;;;5.18;3.13;;;;;;;17.86;100.00;101864.59;5071212;28;20032;-74
2023/09/05 07:10:56;;;;;;;6.65;3.22;;;;;;;17.91;100.00;101859.38;5071243;28;20074;-73
2023/09/05 07:13:21;;;;;;;6.78;3.75;;;;;;;18.02;100.00;101857.81;5069862;28;20032;-73
2023/09/05 07:15:47;;;;;;;7.60;3.75;;;;;;;18.10;100.00;101858.38;5071085;28;20543;-73
2023/09/05 07:18:12;;;;;;;9.73;3.05;;;;;;;18.12;100.00;101845.47;5069552;28;20090;-74
2023/09/05 07:20:38;;;;;;;6.65;3.65;;;;;;;18.26;100.00;101854.28;5069100;28;20067;-74
2023/09/05 07:23:04;;;;;;;5.45;3.08;;;;;;;18.32;100.00;101856.09;5072233;28;20471;-76
2023/09/05 07:25:29;;;;;;;6.07;3.40;;;;;;;18.41;100.00;101848.50;5072476;28;20055;-81
2023/09/05 07:27:54;;;;;;;8.15;3.15;;;;;;;18.45;100.00;101848.91;5070680;28;20056;-76
2023/09/05 07:30:20;;;;;;;8.20;3.47;;;;;;;18.58;100.00;101856.84;5070565;28;20172;-73
2023/09/05 07:32:45;;;;;;;8.25;4.40;;;;;;;18.68;100.00;101850.91;5068627;28;20643;-73
2023/09/05 07:35:10;;;;;;;7.53;4.05;;;;;;;18.74;100.00;101853.53;5068913;28;20466;-75
2023/09/05 07:37:39;;;;;;;5.80;3.35;;;;;;;18.83;100.00;101854.06;5071662;28;20373;-73
2023/09/05 07:40:06;;;;;;;6.75;3.35;;;;;;;18.86;100.00;101847.41;5071023;28;20084;-72
2023/09/05 07:42:31;;;;;;;6.65;3.70;;;;;;;18.95;100.00;101849.56;5070303;28;20028;-72
2023/09/05 07:44:57;;;;;;;6.68;3.33;;;;;;;19.05;100.00;101854.44;5069751;28;20039;-74
2023/09/05 07:47:22;;;;;;;5.38;2.67;;;;;;;19.13;100.00;101845.19;5070138;28;20024;-78
2023/09/05 07:49:47;;;;;;;6.28;3.30;;;;;;;19.16;100.00;101842.84;5068382;28;20700;-81
2023/09/05 07:52:13;;;;;;;5.15;3.22;;;;;;;19.26;100.00;101847.69;5059506;28;20129;-80
2023/09/05 07:54:39;;;;;;;5.30;3.70;;;;;;;19.33;99.55;101842.16;5071091;28;20032;-79
2023/09/05 07:57:04;;;;;;;6.38;2.88;;;;;;;19.36;98.82;101833.59;5052223;28;20456;-81
2023/09/05 07:59:31;;;;;;;3.80;2.65;;;;;;;19.53;98.06;101842.69;5069788;28;20112;-75
2023/09/05 08:01:56;;;;;;;5.90;3.30;;;;;;;19.66;97.15;101850.63;5069508;28;20025;-74
2023/09/05 08:04:22;;;;;;;6.50;3.00;;;;;;;19.81;96.40;101852.91;5069740;28;20039;-75
2023/09/05 08:06:48;;;;;;;4.95;2.97;;;;;;;19.92;97.27;101846.66;5070727;28;20612;-72
2023/09/05 08:09:14;;;;;;;4.88;2.75;;;;;;;20.00;97.63;101852.81;5069962;28;20032;-74
2023/09/05 08:11:39;;;;;;;6.63;2.58;;;;;;;20.12;97.96;101849.03;5069446;28;20016;-77
2023/09/05 08:14:04;;;;;;;8.18;3.55;;;;;;;20.33;93.03;101857.59;5069458;28;20032;-75
2023/09/05 08:16:30;;;;;;;3.90;2.50;;;;;;;20.49;92.96;101858.78;5069144;28;20473;-73
2023/09/05 08:18:55;;;;;;;3.90;2.60;;;;;;;20.72;92.29;101855.22;5068541;28;20040;-76
2023/09/05 08:21:21;;;;;;;6.70;3.70;;;;;;;21.12;90.59;101854.38;5069221;28;20016;-78
2023/09/05 08:23:49;;;;;;;3.28;2.00;;;;;;;21.24;91.08;101845.09;5080736;28;20107;-81
2023/09/05 08:26:16;;;;;;;5.32;2.45;;;;;;;21.61;88.30;101852.00;5083378;28;20032;-81
2023/09/05 08:28:44;;;;;;;6.40;3.20;;;;;;;22.22;85.78;101847.56;5078748;28;20502;-82
2023/09/05 08:31:13;;;;;;;4.82;2.28;;;;;;;23.37;80.33;101844.00;5077214;28;20113;-82
2023/09/05 08:33:39;;;;;;;6.13;2.75;;;;;;;24.68;76.16;101852.53;5080896;28;20031;-81
2023/09/05 08:36:05;;;;;;;4.75;2.22;;;;;;;24.89;70.63;101842.53;5079026;28;20028;-81
2023/09/05 08:38:31;;;;;;;4.25;2.63;;;;;;;24.40;72.47;101848.31;5081503;28;20036;-81
2023/09/05 08:41:02;;;;;;;4.25;2.30;;;;;;;23.94;74.39;101842.59;5076203;28;20039;-81
2023/09/05 08:43:28;;;;;;;2.25;2.03;;;;;;;23.50;73.12;101845.47;5077089;28;20483;-82
2023/09/05 08:45:55;;;;;;;3.35;2.20;;;;;;;23.26;74.11;101845.81;5078216;28;20036;-82
2023/09/05 08:48:21;;;;;;;6.13;2.85;;;;;;;23.10;73.16;101847.56;5077643;28;20029;-80
2023/09/05 08:50:48;;;;;;;3.65;2.58;;;;;;;23.01;75.16;101851.00;5084333;28;20032;-82
2023/09/05 08:53:15;;;;;;;6.63;3.20;;;;;;;22.93;76.79;101852.25;5078415;28;20391;-82
2023/09/05 08:55:42;;;;;;;4.80;2.20;;;;;;;22.89;75.81;101845.66;5074291;28;20157;-79
2023/09/05 08:58:14;;;;;;;4.05;2.53;;;;;;;22.92;73.80;101862.31;5069365;28;20369;-70
2023/09/05 09:00:39;;;;;;;4.20;2.13;;;;;;;22.89;75.15;101862.81;5069295;28;20024;-73
2023/09/05 09:03:06;;;;;;;7.75;2.40;;;;;;;22.96;76.08;101862.63;5088427;28;20032;-74
2023/09/05 09:05:32;;;;;;;4.80;2.15;;;;;;;23.01;76.10;101856.44;5088534;28;20144;-73
2023/09/05 09:07:58;;;;;;;4.45;2.70;;;;;;;23.02;78.09;101850.75;5087386;28;20048;-72
2023/09/05 09:10:23;;;;;;;4.10;2.70;;;;;;;23.05;75.04;101839.34;5069257;28;20491;-73
2023/09/05 09:12:54;;;;;;;5.43;2.78;;;;;;;23.16;75.53;101857.44;5067753;28;20035;-72
2023/09/05 09:15:23;;;;;;;4.10;2.50;;;;;;;23.20;74.04;101849.56;5084061;28;20023;-77
2023/09/05 09:17:51;;;;;;;3.40;2.28;;;;;;;23.32;75.11;101863.03;5088052;28;20024;-77
2023/09/05 09:20:19;;;;;;;4.30;2.10;;;;;;;23.40;75.02;101855.22;5074226;28;20028;-76
2023/09/05 09:22:45;;;;;;;4.93;2.20;;;;;;;23.46;72.65;101861.53;5072088;28;20455;-76
2023/09/05 09:25:22;;;;;;;7.30;2.15;;;;;;;23.50;72.43;101859.94;5067660;28;20124;-77
2023/09/05 09:27:54;;;;;;;8.65;2.67;;;;;;;23.57;72.72;101865.16;5069430;28;20051;-79
2023/09/05 09:30:24;;;;;;;6.65;2.90;;;;;;;23.62;72.37;101866.00;5086859;28;20055;-78
2023/09/05 09:32:54;;;;;;;6.88;2.58;;;;;;;23.69;72.64;101865.81;5086462;28;20648;-76
2023/09/05 09:35:21;;;;;;;4.07;2.67;;;;;;;23.81;73.04;101868.38;5072251;28;20128;-77
2023/09/05 09:37:47;;;;;;;5.35;2.95;;;;;;;23.93;73.15;101865.47;5087907;28;20106;-77
2023/09/05 09:40:16;;;;;;;5.25;2.75;;;;;;;24.00;70.91;101868.81;5088221;28;20032;-77
2023/09/05 09:42:49;;;;;;;8.05;2.65;;;;;;;24.04;69.14;101870.72;5070782;28;20427;-79
2023/09/05 09:45:18;;;;;;;3.05;2.17;;;;;;;24.14;71.09;101869.16;5088130;28;20339;-78
2023/09/05 09:47:49;;;;;;;2.17;1.98;;;;;;;24.22;71.35;101866.75;5074141;28;20037;-77
2023/09/05 09:50:16;;;;;;;4.85;2.35;;;;;;;24.31;68.96;101868.97;5092009;28;20028;-79
2023/09/05 09:52:44;;;;;;;5.22;2.70;;;;;;;24.42;68.84;101868.78;5085551;28;20032;-76
2023/09/05 09:55:16;;;;;;;8.68;2.38;;;;;;;24.47;70.50;101863.38;5091793;28;20362;-77
2023/09/05 09:57:56;;;;;;;3.92;2.50;;;;;;;24.58;67.66;101874.34;5071412;28;20036;-78
2023/09/05 10:00:21;;;;;;;2.97;2.20;;;;;;;24.64;66.96;101865.09;5073610;28;20029;-77
2023/09/05 10:02:47;;;;;;;5.18;1.67;;;;;;;24.70;68.31;101867.56;5090399;28;20093;-76
2023/09/05 10:05:16;;;;;;;5.55;2.10;;;;;;;24.83;69.33;101868.97;5087653;28;20024;-77
2023/09/05 10:07:43;;;;;;;4.32;1.98;;;;;;;24.93;66.08;101879.09;5087062;28;20384;-77
2023/09/05 10:10:15;;;;;;;5.28;2.00;;;;;;;24.96;66.31;101869.56;5072036;28;20089;-77
2023/09/05 10:12:41;;;;;;;;;;;;;;;25.05;69.79;101873.44;5072631;28;20042;-77
2023/09/05 10:15:10;;;;;;;5.60;2.03;;;;;;;25.12;66.69;101863.03;5085074;28;19919;-77
2023/09/05 10:17:37;;;;;;;3.83;1.92;;;;;;;25.16;66.00;101858.72;5092417;28;20046;-76
2023/09/05 10:20:04;;;;;;;5.22;2.78;;;;;;;25.23;65.81;101861.19;5088532;28;20053;-74
2023/09/05 10:22:32;;;;;;;2.55;1.98;;;;;;;25.25;66.82;101853.53;5091167;28;20434;-76
2023/09/05 10:25:00;;;;;;;6.22;3.08;;;;;;;25.34;64.49;101850.00;5090021;28;20034;-76
2023/09/05 10:27:25;;;;;;;4.10;2.25;;;;;;;25.39;65.02;101846.47;5088080;28;20056;-76
2023/09/05 10:29:51;;;;;;;3.97;2.10;;;;;;;25.40;64.51;101845.38;5089710;28;20491;-77
2023/09/05 10:32:19;;;;;;;5.32;2.08;;;;;;;25.45;65.02;101848.09;5076093;28;20592;-76
2023/09/05 10:34:44;;;;;;;3.08;2.20;;;;;;;25.47;63.79;101848.66;5090542;28;20449;-76
2023/09/05 10:37:10;;;;;;;3.83;2.30;;;;;;;25.51;63.67;101838.00;5089605;28;20418;-76
2023/09/05 10:39:36;;;;;;;4.55;2.30;;;;;;;25.57;65.87;101836.88;5073716;28;20310;-81
2023/09/05 10:42:01;;;;;;;6.28;1.92;;;;;;;25.69;64.93;101847.56;5070759;28;20036;-83
2023/09/05 10:44:29;;;;;;;7.80;1.90;;;;;;;25.76;66.25;101842.66;5070145;28;20032;-78
2023/09/05 10:46:55;;;;;;;3.63;2.30;;;;;;;25.90;66.01;101837.47;5069496;28;20097;-76
2023/09/05 10:49:21;;;;;;;3.95;2.15;;;;;;;25.99;67.13;101833.03;5071027;28;20041;-81
2023/09/05 10:52:14;;;;;;;4.40;2.33;;;;;;;26.07;67.42;101832.50;5070951;28;20035;-77
2023/09/05 10:54:40;;;;;;;2.72;2.17;;;;;;;26.11;65.67;101821.81;5071537;28;20031;-75
2023/09/05 10:57:38;;;;;;;3.53;2.50;;;;;;;26.16;64.09;101836.28;5070542;28;20020;-78
2023/09/05 11:00:14;;;;;;;3.97;2.10;;;;;;;26.17;64.53;101834.38;5071226;28;20036;-79
2023/09/05 11:02:40;;;;;;;4.03;2.00;;;;;;;26.15;64.38;101825.66;5069770;28;20040;-79
2023/09/05 11:05:19;;;;;;;3.47;2.20;;;;;;;26.23;63.32;101834.09;5069304;28;20024;-80
2023/09/05 11:07:46;;;;;;;4.90;2.00;;;;;;;26.32;63.34;101831.59;5071443;28;20020;-80
2023/09/05 11:10:34;;;;;;;5.82;2.80;;;;;;;26.39;64.94;101831.31;5068108;28;20361;-79
2023/09/05 11:13:11;;;;;;;3.53;2.20;;;;;;;26.48;65.65;101831.53;5069221;28;20032;-82
2023/09/05 11:15:43;;;;;;;5.30;2.40;;;;;;;26.54;66.67;101816.75;5070586;28;20278;-76
2023/09/05 11:18:09;;;;;;;;;;;;;;;26.66;69.01;101823.53;5070013;28;20024;-75